sensor_id;sensor_type;location;lat;lon;timestamp;pressure;altitude;pressure_sealevel;temperature;humidity
63006;BME280;53704;52.532;6.426;2022-11-15T00:02:17;100886.41;;;5.52;100.00
63006;BME280;53704;52.532;6.426;2022-11-15T00:04:43;100883.97;;;5.60;100.00
63006;BME280;53704;52.532;6.426;2022-11-15T00:07:08;100893.63;;;5.61;100.00
63006;BME280;53704;52.532;6.426;2022-11-15T00:09:33;100879.59;;;5.59;100.00
63006;BME280;53704;52.532;6.426;2022-11-15T00:11:59;100875.06;;;5.59;100.00
63006;BME280;53704;52.532;6.426;2022-11-15T00:14:24;100869.47;;;5.62;100.00
63006;BME280;53704;52.532;6.426;2022-11-15T00:16:49;100876.38;;;5.65;100.00
63006;BME280;53704;52.532;6.426;2022-11-15T00:19:15;100881.59;;;5.67;100.00
63006;BME280;53704;52.532;6.426;2022-11-15T00:21:40;100881.34;;;5.70;100.00
63006;BME280;53704;52.532;6.426;2022-11-15T00:24:06;100882.84;;;5.84;100.00
63006;BME280;53704;52.532;6.426;2022-11-15T00:26:31;100865.09;;;5.83;100.00
63006;BME280;53704;52.532;6.426;2022-11-15T00:28:57;100864.13;;;5.84;100.00
63006;BME280;53704;52.532;6.426;2022-11-15T00:31:22;100861.47;;;5.84;100.00
63006;BME280;53704;52.532;6.426;2022-11-15T00:33:47;100858.31;;;5.78;100.00
63006;BME280;53704;52.532;6.426;2022-11-15T00:36:13;100861.03;;;6.00;100.00
63006;BME280;53704;52.532;6.426;2022-11-15T00:38:39;100863.31;;;5.93;100.00
63006;BME280;53704;52.532;6.426;2022-11-15T00:41:06;100873.66;;;5.97;100.00
63006;BME280;53704;52.532;6.426;2022-11-15T00:43:32;100865.72;;;5.96;100.00
63006;BME280;53704;52.532;6.426;2022-11-15T00:45:58;100866.81;;;6.05;100.00
63006;BME280;53704;52.532;6.426;2022-11-15T00:48:24;100866.50;;;5.98;100.00
63006;BME280;53704;52.532;6.426;2022-11-15T00:50:50;100861.09;;;6.19;100.00
63006;BME280;53704;52.532;6.426;2022-11-15T00:53:16;100860.75;;;6.03;100.00
63006;BME280;53704;52.532;6.426;2022-11-15T00:55:41;100872.06;;;5.95;100.00
63006;BME280;53704;52.532;6.426;2022-11-15T00:58:07;100867.00;;;5.92;100.00
63006;BME280;53704;52.532;6.426;2022-11-15T01:00:33;100851.94;;;5.91;100.00
63006;BME280;53704;52.532;6.426;2022-11-15T01:02:59;100852.34;;;6.07;100.00
63006;BME280;53704;52.532;6.426;2022-11-15T01:05:25;100855.84;;;6.08;100.00
63006;BME280;53704;52.532;6.426;2022-11-15T01:07:55;100850.19;;;6.01;100.00
63006;BME280;53704;52.532;6.426;2022-11-15T01:10:21;100852.13;;;5.99;100.00
63006;BME280;53704;52.532;6.426;2022-11-15T01:12:47;100840.47;;;6.00;100.00
63006;BME280;53704;52.532;6.426;2022-11-15T01:15:13;100843.00;;;6.02;100.00
63006;BME280;53704;52.532;6.426;2022-11-15T01:17:38;100839.25;;;6.04;100.00
63006;BME280;53704;52.532;6.426;2022-11-15T01:20:04;100825.75;;;6.06;100.00
63006;BME280;53704;52.532;6.426;2022-11-15T01:22:30;100820.28;;;6.17;100.00
63006;BME280;53704;52.532;6.426;2022-11-15T01:24:55;100829.59;;;6.23;100.00
63006;BME280;53704;52.532;6.426;2022-11-15T01:27:21;100821.13;;;6.18;100.00
63006;BME280;53704;52.532;6.426;2022-11-15T01:29:46;100823.81;;;6.18;100.00
63006;BME280;53704;52.532;6.426;2022-11-15T01:32:11;100823.38;;;6.12;100.00
63006;BME280;53704;52.532;6.426;2022-11-15T01:34:37;100815.66;;;6.19;100.00
63006;BME280;53704;52.532;6.426;2022-11-15T01:37:02;100825.25;;;6.31;100.00
63006;BME280;53704;52.532;6.426;2022-11-15T01:39:27;100825.38;;;6.20;100.00
63006;BME280;53704;52.532;6.426;2022-11-15T01:41:53;100814.53;;;6.22;100.00
63006;BME280;53704;52.532;6.426;2022-11-15T01:44:38;100814.00;;;6.28;100.00
63006;BME280;53704;52.532;6.426;2022-11-15T01:47:12;100809.34;;;6.30;100.00
63006;BME280;53704;52.532;6.426;2022-11-15T01:49:41;100805.53;;;6.23;100.00
63006;BME280;53704;52.532;6.426;2022-11-15T01:52:13;100807.50;;;6.30;100.00
63006;BME280;53704;52.532;6.426;2022-11-15T01:54:42;100803.19;;;6.29;100.00
63006;BME280;53704;52.532;6.426;2022-11-15T01:57:09;100804.03;;;6.40;100.00
63006;BME280;53704;52.532;6.426;2022-11-15T01:59:38;100810.19;;;6.30;100.00
63006;BME280;53704;52.532;6.426;2022-11-15T02:02:05;100801.06;;;6.33;100.00
63006;BME280;53704;52.532;6.426;2022-11-15T02:04:33;100800.13;;;6.54;100.00
63006;BME280;53704;52.532;6.426;2022-11-15T02:07:02;100804.31;;;6.46;100.00
63006;BME280;53704;52.532;6.426;2022-11-15T02:09:29;100797.53;;;6.32;100.00
63006;BME280;53704;52.532;6.426;2022-11-15T02:11:56;100797.97;;;6.38;100.00
63006;BME280;53704;52.532;6.426;2022-11-15T02:14:22;100796.97;;;6.39;100.00
63006;BME280;53704;52.532;6.426;2022-11-15T02:16:52;100800.81;;;6.46;100.00
63006;BME280;53704;52.532;6.426;2022-11-15T02:25:19;100793.75;;;6.55;100.00
63006;BME280;53704;52.532;6.426;2022-11-15T02:28:20;100782.38;;;6.62;100.00
63006;BME280;53704;52.532;6.426;2022-11-15T02:37:14;100775.91;;;6.65;100.00
63006;BME280;53704;52.532;6.426;2022-11-15T02:40:11;100782.66;;;6.59;100.00
63006;BME280;53704;52.532;6.426;2022-11-15T02:42:45;100779.44;;;6.75;100.00
63006;BME280;53704;52.532;6.426;2022-11-15T02:45:40;100780.28;;;6.66;100.00
63006;BME280;53704;52.532;6.426;2022-11-15T02:48:08;100773.53;;;6.72;100.00
63006;BME280;53704;52.532;6.426;2022-11-15T02:50:34;100769.31;;;6.69;100.00
63006;BME280;53704;52.532;6.426;2022-11-15T02:53:00;100776.75;;;6.75;100.00
63006;BME280;53704;52.532;6.426;2022-11-15T02:55:32;100776.19;;;6.81;100.00
63006;BME280;53704;52.532;6.426;2022-11-15T03:06:59;100774.09;;;6.85;100.00
63006;BME280;53704;52.532;6.426;2022-11-15T03:09:34;100767.03;;;6.84;100.00
63006;BME280;53704;52.532;6.426;2022-11-15T03:12:06;100764.22;;;6.95;100.00
63006;BME280;53704;52.532;6.426;2022-11-15T03:17:25;100755.34;;;6.95;100.00
63006;BME280;53704;52.532;6.426;2022-11-15T03:19:54;100753.94;;;7.00;100.00
63006;BME280;53704;52.532;6.426;2022-11-15T03:22:23;100756.19;;;7.05;100.00
63006;BME280;53704;52.532;6.426;2022-11-15T03:25:00;100745.34;;;7.06;100.00
63006;BME280;53704;52.532;6.426;2022-11-15T03:27:38;100756.63;;;7.10;100.00
63006;BME280;53704;52.532;6.426;2022-11-15T03:30:07;100753.19;;;7.18;100.00
63006;BME280;53704;52.532;6.426;2022-11-15T03:32:40;100749.53;;;7.19;100.00
63006;BME280;53704;52.532;6.426;2022-11-15T03:35:19;100741.66;;;7.17;100.00
63006;BME280;53704;52.532;6.426;2022-11-15T03:37:59;100742.78;;;7.24;100.00
63006;BME280;53704;52.532;6.426;2022-11-15T03:40:44;100748.81;;;7.27;100.00
63006;BME280;53704;52.532;6.426;2022-11-15T03:43:29;100739.09;;;7.25;100.00
63006;BME280;53704;52.532;6.426;2022-11-15T03:46:10;100729.22;;;7.36;100.00
63006;BME280;53704;52.532;6.426;2022-11-15T03:48:42;100729.50;;;7.33;100.00
63006;BME280;53704;52.532;6.426;2022-11-15T03:51:09;100725.56;;;7.37;100.00
63006;BME280;53704;52.532;6.426;2022-11-15T03:53:35;100732.59;;;7.38;100.00
63006;BME280;53704;52.532;6.426;2022-11-15T03:56:00;100733.28;;;7.50;100.00
63006;BME280;53704;52.532;6.426;2022-11-15T03:58:26;100720.75;;;7.40;100.00
63006;BME280;53704;52.532;6.426;2022-11-15T04:00:51;100723.09;;;7.53;100.00
63006;BME280;53704;52.532;6.426;2022-11-15T04:03:16;100721.69;;;7.49;100.00
63006;BME280;53704;52.532;6.426;2022-11-15T04:05:42;100716.75;;;7.54;100.00
63006;BME280;53704;52.532;6.426;2022-11-15T04:08:07;100712.63;;;7.60;100.00
63006;BME280;53704;52.532;6.426;2022-11-15T04:10:32;100720.66;;;7.60;100.00
63006;BME280;53704;52.532;6.426;2022-11-15T04:12:58;100714.28;;;7.71;100.00
63006;BME280;53704;52.532;6.426;2022-11-15T04:15:23;100717.25;;;7.68;100.00
63006;BME280;53704;52.532;6.426;2022-11-15T04:17:51;100714.97;;;7.73;100.00
63006;BME280;53704;52.532;6.426;2022-11-15T04:20:26;100709.22;;;7.68;100.00
63006;BME280;53704;52.532;6.426;2022-11-15T04:23:18;100726.41;;;7.75;100.00
63006;BME280;53704;52.532;6.426;2022-11-15T04:26:05;100728.06;;;7.76;100.00
63006;BME280;53704;52.532;6.426;2022-11-15T04:28:31;100721.28;;;7.82;100.00
63006;BME280;53704;52.532;6.426;2022-11-15T04:30:56;100729.72;;;7.87;100.00
63006;BME280;53704;52.532;6.426;2022-11-15T04:33:22;100728.44;;;7.91;100.00
63006;BME280;53704;52.532;6.426;2022-11-15T04:35:49;100736.94;;;7.86;100.00
63006;BME280;53704;52.532;6.426;2022-11-15T04:38:33;100734.41;;;7.85;100.00
63006;BME280;53704;52.532;6.426;2022-11-15T04:40:59;100737.47;;;7.90;100.00
63006;BME280;53704;52.532;6.426;2022-11-15T04:43:25;100733.25;;;7.87;100.00
63006;BME280;53704;52.532;6.426;2022-11-15T04:45:50;100735.63;;;7.90;100.00
63006;BME280;53704;52.532;6.426;2022-11-15T04:48:16;100728.53;;;7.99;100.00
63006;BME280;53704;52.532;6.426;2022-11-15T04:50:41;100731.38;;;7.97;100.00
63006;BME280;53704;52.532;6.426;2022-11-15T04:53:07;100731.06;;;8.01;100.00
63006;BME280;53704;52.532;6.426;2022-11-15T04:55:32;100740.19;;;8.08;100.00
63006;BME280;53704;52.532;6.426;2022-11-15T04:58:01;100739.88;;;8.11;100.00
63006;BME280;53704;52.532;6.426;2022-11-15T05:00:28;100740.03;;;8.09;100.00
63006;BME280;53704;52.532;6.426;2022-11-15T05:02:54;100736.66;;;8.07;100.00
63006;BME280;53704;52.532;6.426;2022-11-15T05:05:38;100738.47;;;8.17;100.00
63006;BME280;53704;52.532;6.426;2022-11-15T05:08:04;100737.50;;;8.08;100.00
63006;BME280;53704;52.532;6.426;2022-11-15T05:10:29;100726.63;;;8.09;100.00
63006;BME280;53704;52.532;6.426;2022-11-15T05:12:55;100736.66;;;8.07;100.00
63006;BME280;53704;52.532;6.426;2022-11-15T05:15:20;100721.28;;;8.09;100.00
63006;BME280;53704;52.532;6.426;2022-11-15T05:17:46;100717.75;;;8.09;100.00
63006;BME280;53704;52.532;6.426;2022-11-15T05:20:11;100723.66;;;8.12;100.00
63006;BME280;53704;52.532;6.426;2022-11-15T05:22:38;100730.88;;;8.12;100.00
63006;BME280;53704;52.532;6.426;2022-11-15T05:25:04;100723.59;;;8.22;100.00
63006;BME280;53704;52.532;6.426;2022-11-15T05:27:29;100714.78;;;8.30;100.00
63006;BME280;53704;52.532;6.426;2022-11-15T05:29:55;100715.66;;;8.30;100.00
63006;BME280;53704;52.532;6.426;2022-11-15T05:32:20;100721.00;;;8.30;100.00
63006;BME280;53704;52.532;6.426;2022-11-15T05:34:46;100717.31;;;8.31;100.00
63006;BME280;53704;52.532;6.426;2022-11-15T05:37:13;100710.50;;;8.37;100.00
63006;BME280;53704;52.532;6.426;2022-11-15T05:39:38;100714.75;;;8.40;100.00
63006;BME280;53704;52.532;6.426;2022-11-15T05:42:10;100714.75;;;8.40;100.00
63006;BME280;53704;52.532;6.426;2022-11-15T05:44:37;100717.84;;;8.45;100.00
63006;BME280;53704;52.532;6.426;2022-11-15T05:47:06;100720.66;;;8.43;100.00
63006;BME280;53704;52.532;6.426;2022-11-15T05:49:35;100721.63;;;8.42;100.00
63006;BME280;53704;52.532;6.426;2022-11-15T05:52:05;100726.88;;;8.44;100.00
63006;BME280;53704;52.532;6.426;2022-11-15T05:54:32;100719.09;;;8.41;100.00
63006;BME280;53704;52.532;6.426;2022-11-15T05:56:59;100723.13;;;8.55;100.00
63006;BME280;53704;52.532;6.426;2022-11-15T05:59:25;100718.88;;;8.52;100.00
63006;BME280;53704;52.532;6.426;2022-11-15T06:01:51;100723.13;;;8.55;100.00
63006;BME280;53704;52.532;6.426;2022-11-15T06:04:16;100721.97;;;8.57;100.00
63006;BME280;53704;52.532;6.426;2022-11-15T06:06:41;100727.56;;;8.64;100.00
63006;BME280;53704;52.532;6.426;2022-11-15T06:09:07;100728.72;;;8.61;100.00
63006;BME280;53704;52.532;6.426;2022-11-15T06:11:32;100729.25;;;8.65;100.00
63006;BME280;53704;52.532;6.426;2022-11-15T06:13:57;100734.44;;;8.66;100.00
63006;BME280;53704;52.532;6.426;2022-11-15T06:16:23;100732.41;;;8.60;100.00
63006;BME280;53704;52.532;6.426;2022-11-15T06:18:48;100736.31;;;8.66;100.00
63006;BME280;53704;52.532;6.426;2022-11-15T06:21:14;100736.31;;;8.66;100.00
63006;BME280;53704;52.532;6.426;2022-11-15T06:23:39;100738.16;;;8.65;100.00
63006;BME280;53704;52.532;6.426;2022-11-15T06:26:04;100740.53;;;8.68;100.00
63006;BME280;53704;52.532;6.426;2022-11-15T06:28:31;100742.75;;;8.73;100.00
63006;BME280;53704;52.532;6.426;2022-11-15T06:31:03;100736.47;;;8.64;100.00
63006;BME280;53704;52.532;6.426;2022-11-15T06:33:29;100743.22;;;8.68;100.00
63006;BME280;53704;52.532;6.426;2022-11-15T06:35:54;100744.34;;;8.66;100.00
63006;BME280;53704;52.532;6.426;2022-11-15T06:38:20;100739.75;;;8.76;100.00
63006;BME280;53704;52.532;6.426;2022-11-15T06:40:45;100744.84;;;8.79;100.00
63006;BME280;53704;52.532;6.426;2022-11-15T06:43:11;100755.94;;;8.84;100.00
63006;BME280;53704;52.532;6.426;2022-11-15T06:45:36;100753.09;;;8.86;100.00
63006;BME280;53704;52.532;6.426;2022-11-15T06:48:01;100750.25;;;8.87;100.00
63006;BME280;53704;52.532;6.426;2022-11-15T06:50:27;100756.41;;;8.80;100.00
63006;BME280;53704;52.532;6.426;2022-11-15T06:52:53;100758.47;;;8.86;100.00
63006;BME280;53704;52.532;6.426;2022-11-15T06:55:19;100763.94;;;8.76;100.00
63006;BME280;53704;52.532;6.426;2022-11-15T06:57:49;100766.97;;;8.81;100.00
63006;BME280;53704;52.532;6.426;2022-11-15T07:00:16;100769.88;;;8.88;100.00
63006;BME280;53704;52.532;6.426;2022-11-15T07:02:42;100766.00;;;8.82;100.00
63006;BME280;53704;52.532;6.426;2022-11-15T07:05:07;100772.03;;;8.84;100.00
63006;BME280;53704;52.532;6.426;2022-11-15T07:07:33;100762.06;;;8.77;100.00
63006;BME280;53704;52.532;6.426;2022-11-15T07:09:58;100767.91;;;8.72;100.00
63006;BME280;53704;52.532;6.426;2022-11-15T07:12:23;100773.78;;;8.76;100.00
63006;BME280;53704;52.532;6.426;2022-11-15T07:14:49;100767.81;;;8.82;100.00
63006;BME280;53704;52.532;6.426;2022-11-15T07:17:14;100771.03;;;8.85;100.00
63006;BME280;53704;52.532;6.426;2022-11-15T07:19:39;100772.78;;;8.95;100.00
63006;BME280;53704;52.532;6.426;2022-11-15T07:22:05;100779.03;;;8.95;100.00
63006;BME280;53704;52.532;6.426;2022-11-15T07:24:30;100777.63;;;8.91;100.00
63006;BME280;53704;52.532;6.426;2022-11-15T07:26:56;100784.75;;;9.00;100.00
63006;BME280;53704;52.532;6.426;2022-11-15T07:29:21;100783.63;;;9.03;100.00
63006;BME280;53704;52.532;6.426;2022-11-15T07:31:46;100782.59;;;9.04;100.00
63006;BME280;53704;52.532;6.426;2022-11-15T07:34:12;100784.53;;;9.12;100.00
63006;BME280;53704;52.532;6.426;2022-11-15T07:36:37;100790.19;;;9.09;100.00
63006;BME280;53704;52.532;6.426;2022-11-15T07:39:03;100795.56;;;9.09;100.00
63006;BME280;53704;52.532;6.426;2022-11-15T07:41:28;100794.91;;;9.07;100.00
63006;BME280;53704;52.532;6.426;2022-11-15T07:43:54;100786.22;;;9.13;100.00
63006;BME280;53704;52.532;6.426;2022-11-15T07:46:20;100779.16;;;9.12;100.00
63006;BME280;53704;52.532;6.426;2022-11-15T07:48:45;100792.59;;;9.12;100.00
63006;BME280;53704;52.532;6.426;2022-11-15T07:51:15;100791.66;;;9.21;100.00
63006;BME280;53704;52.532;6.426;2022-11-15T07:53:44;100785.28;;;9.22;100.00
63006;BME280;53704;52.532;6.426;2022-11-15T07:56:10;100789.19;;;9.28;100.00
63006;BME280;53704;52.532;6.426;2022-11-15T07:58:36;100787.00;;;9.31;100.00
63006;BME280;53704;52.532;6.426;2022-11-15T08:01:05;100786.69;;;9.34;100.00
63006;BME280;53704;52.532;6.426;2022-11-15T08:03:32;100785.41;;;9.38;100.00
63006;BME280;53704;52.532;6.426;2022-11-15T08:05:57;100779.34;;;9.36;100.00
63006;BME280;53704;52.532;6.426;2022-11-15T08:08:23;100782.19;;;9.35;100.00
63006;BME280;53704;52.532;6.426;2022-11-15T08:10:48;100781.78;;;9.48;100.00
63006;BME280;53704;52.532;6.426;2022-11-15T08:13:14;100782.44;;;9.50;100.00
63006;BME280;53704;52.532;6.426;2022-11-15T08:15:39;100791.13;;;9.44;100.00
63006;BME280;53704;52.532;6.426;2022-11-15T08:18:08;100785.50;;;9.55;100.00
63006;BME280;53704;52.532;6.426;2022-11-15T08:20:34;100793.72;;;9.53;100.00
63006;BME280;53704;52.532;6.426;2022-11-15T08:23:01;100788.56;;;9.60;100.00
63006;BME280;53704;52.532;6.426;2022-11-15T08:25:28;100786.69;;;9.52;100.00
63006;BME280;53704;52.532;6.426;2022-11-15T08:27:56;100781.81;;;9.56;100.00
63006;BME280;53704;52.532;6.426;2022-11-15T08:30:23;100770.75;;;9.59;100.00
63006;BME280;53704;52.532;6.426;2022-11-15T08:32:49;100776.13;;;9.59;100.00
63006;BME280;53704;52.532;6.426;2022-11-15T08:35:15;100773.31;;;9.69;100.00
63006;BME280;53704;52.532;6.426;2022-11-15T08:37:41;100771.97;;;9.65;100.00
63006;BME280;53704;52.532;6.426;2022-11-15T08:40:07;100772.22;;;9.80;100.00
63006;BME280;53704;52.532;6.426;2022-11-15T08:42:33;100777.75;;;9.78;100.00
63006;BME280;53704;52.532;6.426;2022-11-15T08:44:58;100771.91;;;9.83;100.00
63006;BME280;53704;52.532;6.426;2022-11-15T08:47:24;100773.94;;;9.89;100.00
63006;BME280;53704;52.532;6.426;2022-11-15T08:49:49;100776.47;;;9.90;100.00
63006;BME280;53704;52.532;6.426;2022-11-15T08:52:15;100758.94;;;9.78;100.00
63006;BME280;53704;52.532;6.426;2022-11-15T08:54:40;100765.03;;;9.88;100.00
63006;BME280;53704;52.532;6.426;2022-11-15T08:57:06;100770.91;;;9.84;100.00
63006;BME280;53704;52.532;6.426;2022-11-15T08:59:32;100766.88;;;9.88;100.00
63006;BME280;53704;52.532;6.426;2022-11-15T09:01:58;100758.50;;;9.99;100.00
63006;BME280;53704;52.532;6.426;2022-11-15T09:04:23;100747.91;;;9.98;100.00
63006;BME280;53704;52.532;6.426;2022-11-15T09:06:48;100754.16;;;9.98;100.00
63006;BME280;53704;52.532;6.426;2022-11-15T09:09:14;100752.13;;;10.00;100.00
63006;BME280;53704;52.532;6.426;2022-11-15T09:11:39;100738.84;;;9.99;100.00
63006;BME280;53704;52.532;6.426;2022-11-15T09:14:05;100744.59;;;10.12;100.00
63006;BME280;53704;52.532;6.426;2022-11-15T09:16:31;100737.38;;;10.04;100.00
63006;BME280;53704;52.532;6.426;2022-11-15T09:18:57;100738.88;;;10.07;100.00
63006;BME280;53704;52.532;6.426;2022-11-15T09:21:22;100731.66;;;10.07;100.00
63006;BME280;53704;52.532;6.426;2022-11-15T09:23:50;100734.19;;;10.09;100.00
63006;BME280;53704;52.532;6.426;2022-11-15T09:26:16;100733.72;;;10.22;100.00
63006;BME280;53704;52.532;6.426;2022-11-15T09:28:42;100731.38;;;10.19;100.00
63006;BME280;53704;52.532;6.426;2022-11-15T09:31:07;100740.41;;;10.09;100.00
63006;BME280;53704;52.532;6.426;2022-11-15T09:33:33;100743.09;;;10.09;100.00
63006;BME280;53704;52.532;6.426;2022-11-15T09:36:04;100735.22;;;10.16;100.00
63006;BME280;53704;52.532;6.426;2022-11-15T09:38:31;100739.44;;;10.19;100.00
63006;BME280;53704;52.532;6.426;2022-11-15T09:44:14;100744.13;;;10.17;100.00
63006;BME280;53704;52.532;6.426;2022-11-15T09:46:59;100747.34;;;10.20;100.00
63006;BME280;53704;52.532;6.426;2022-11-15T09:49:31;100741.63;;;10.23;100.00
63006;BME280;53704;52.532;6.426;2022-11-15T09:52:04;100750.25;;;10.35;100.00
63006;BME280;53704;52.532;6.426;2022-11-15T09:54:37;100751.97;;;10.36;100.00
63006;BME280;53704;52.532;6.426;2022-11-15T09:57:14;100742.69;;;10.39;100.00
63006;BME280;53704;52.532;6.426;2022-11-15T10:00:00;100741.72;;;10.56;100.00
63006;BME280;53704;52.532;6.426;2022-11-15T10:05:24;100731.44;;;10.43;100.00
63006;BME280;53704;52.532;6.426;2022-11-15T10:07:54;100734.50;;;10.48;100.00
63006;BME280;53704;52.532;6.426;2022-11-15T10:10:27;100728.25;;;10.48;100.00
63006;BME280;53704;52.532;6.426;2022-11-15T10:12:56;100732.66;;;10.57;100.00
63006;BME280;53704;52.532;6.426;2022-11-15T10:15:22;100735.53;;;10.72;100.00
63006;BME280;53704;52.532;6.426;2022-11-15T10:20:59;100721.72;;;10.67;100.00
63006;BME280;53704;52.532;6.426;2022-11-15T10:23:27;100726.59;;;10.80;100.00
63006;BME280;53704;52.532;6.426;2022-11-15T10:25:55;100722.25;;;10.71;100.00
63006;BME280;53704;52.532;6.426;2022-11-15T10:28:30;100719.53;;;10.62;100.00
63006;BME280;53704;52.532;6.426;2022-11-15T10:30:57;100713.97;;;10.64;100.00
63006;BME280;53704;52.532;6.426;2022-11-15T10:33:24;100703.56;;;10.69;100.00
63006;BME280;53704;52.532;6.426;2022-11-15T10:36:21;100702.38;;;10.55;100.00
63006;BME280;53704;52.532;6.426;2022-11-15T10:44:12;100679.63;;;11.15;100.00
63006;BME280;53704;52.532;6.426;2022-11-15T10:46:44;100675.72;;;11.26;100.00
63006;BME280;53704;52.532;6.426;2022-11-15T10:51:55;100667.47;;;11.19;100.00
63006;BME280;53704;52.532;6.426;2022-11-15T10:56:54;100655.50;;;11.22;100.00
63006;BME280;53704;52.532;6.426;2022-11-15T10:59:27;100655.81;;;11.44;100.00
63006;BME280;53704;52.532;6.426;2022-11-15T11:01:55;100663.25;;;11.25;100.00
63006;BME280;53704;52.532;6.426;2022-11-15T11:04:20;100664.31;;;11.08;100.00
63006;BME280;53704;52.532;6.426;2022-11-15T11:06:50;100655.84;;;11.19;100.00
63006;BME280;53704;52.532;6.426;2022-11-15T11:09:37;100659.38;;;11.28;100.00
63006;BME280;53704;52.532;6.426;2022-11-15T11:12:05;100660.06;;;11.21;100.00
63006;BME280;53704;52.532;6.426;2022-11-15T11:14:36;100652.59;;;11.48;100.00
63006;BME280;53704;52.532;6.426;2022-11-15T11:17:09;100650.94;;;11.39;100.00
63006;BME280;53704;52.532;6.426;2022-11-15T11:20:09;100651.69;;;11.64;100.00
63006;BME280;53704;52.532;6.426;2022-11-15T11:25:22;100639.25;;;11.55;100.00
63006;BME280;53704;52.532;6.426;2022-11-15T11:28:52;100635.75;;;11.38;100.00
63006;BME280;53704;52.532;6.426;2022-11-15T11:33:44;100633.03;;;11.46;100.00
63006;BME280;53704;52.532;6.426;2022-11-15T11:41:37;100626.06;;;11.60;100.00
63006;BME280;53704;52.532;6.426;2022-11-15T11:44:48;100618.47;;;11.64;100.00
63006;BME280;53704;52.532;6.426;2022-11-15T11:47:23;100620.53;;;11.53;100.00
63006;BME280;53704;52.532;6.426;2022-11-15T11:49:51;100621.72;;;11.51;100.00
63006;BME280;53704;52.532;6.426;2022-11-15T11:52:49;100601.75;;;11.68;100.00
63006;BME280;53704;52.532;6.426;2022-11-15T11:57:46;100606.22;;;11.92;100.00
63006;BME280;53704;52.532;6.426;2022-11-15T12:00:21;100595.13;;;11.79;100.00
63006;BME280;53704;52.532;6.426;2022-11-15T12:03:02;100602.75;;;11.75;100.00
63006;BME280;53704;52.532;6.426;2022-11-15T12:05:39;100605.22;;;11.85;100.00
63006;BME280;53704;52.532;6.426;2022-11-15T12:11:13;100610.00;;;11.75;100.00
63006;BME280;53704;52.532;6.426;2022-11-15T12:13:42;100610.66;;;11.77;100.00
63006;BME280;53704;52.532;6.426;2022-11-15T12:16:15;100603.81;;;11.66;100.00
63006;BME280;53704;52.532;6.426;2022-11-15T12:18:49;100607.31;;;11.75;100.00
63006;BME280;53704;52.532;6.426;2022-11-15T12:21:22;100596.53;;;11.75;100.00
63006;BME280;53704;52.532;6.426;2022-11-15T12:23:54;100598.44;;;11.89;100.00
63006;BME280;53704;52.532;6.426;2022-11-15T12:26:26;100593.78;;;11.83;100.00
63006;BME280;53704;52.532;6.426;2022-11-15T12:29:14;100582.97;;;12.15;100.00
63006;BME280;53704;52.532;6.426;2022-11-15T12:31:42;100575.66;;;12.00;100.00
63006;BME280;53704;52.532;6.426;2022-11-15T12:34:35;100576.53;;;12.16;100.00
63006;BME280;53704;52.532;6.426;2022-11-15T12:40:24;100582.47;;;12.11;100.00
63006;BME280;53704;52.532;6.426;2022-11-15T12:45:32;100577.56;;;12.15;100.00
63006;BME280;53704;52.532;6.426;2022-11-15T12:56:09;100566.41;;;12.18;100.00
63006;BME280;53704;52.532;6.426;2022-11-15T12:58:48;100552.88;;;12.41;100.00
63006;BME280;53704;52.532;6.426;2022-11-15T13:12:00;100531.91;;;11.82;100.00
63006;BME280;53704;52.532;6.426;2022-11-15T13:22:47;100528.78;;;11.70;100.00
63006;BME280;53704;52.532;6.426;2022-11-15T13:25:19;100535.97;;;11.77;100.00
63006;BME280;53704;52.532;6.426;2022-11-15T13:27:48;100517.75;;;11.56;100.00
63006;BME280;53704;52.532;6.426;2022-11-15T13:30:20;100517.63;;;11.50;100.00
63006;BME280;53704;52.532;6.426;2022-11-15T13:32:45;100515.81;;;11.42;100.00
63006;BME280;53704;52.532;6.426;2022-11-15T13:35:38;100519.75;;;11.31;100.00
63006;BME280;53704;52.532;6.426;2022-11-15T13:38:05;100508.28;;;11.61;95.95
63006;BME280;53704;52.532;6.426;2022-11-15T13:40:37;100502.69;;;11.39;99.62
63006;BME280;53704;52.532;6.426;2022-11-15T13:48:32;100497.34;;;11.31;100.00
63006;BME280;53704;52.532;6.426;2022-11-15T13:51:00;100489.47;;;11.21;100.00
63006;BME280;53704;52.532;6.426;2022-11-15T13:53:26;100473.16;;;11.14;100.00
63006;BME280;53704;52.532;6.426;2022-11-15T13:55:54;100477.56;;;11.38;100.00
63006;BME280;53704;52.532;6.426;2022-11-15T13:58:20;100479.97;;;11.33;100.00
63006;BME280;53704;52.532;6.426;2022-11-15T14:00:46;100473.53;;;11.11;100.00
63006;BME280;53704;52.532;6.426;2022-11-15T14:03:25;100474.03;;;11.15;100.00
63006;BME280;53704;52.532;6.426;2022-11-15T14:08:29;100475.09;;;11.29;100.00
63006;BME280;53704;52.532;6.426;2022-11-15T14:11:17;100471.13;;;11.16;100.00
63006;BME280;53704;52.532;6.426;2022-11-15T14:14:01;100465.22;;;10.90;100.00
63006;BME280;53704;52.532;6.426;2022-11-15T14:16:41;100462.63;;;11.04;100.00
63006;BME280;53704;52.532;6.426;2022-11-15T14:22:07;100466.66;;;11.00;100.00
63006;BME280;53704;52.532;6.426;2022-11-15T14:24:33;100455.81;;;11.17;100.00
63006;BME280;53704;52.532;6.426;2022-11-15T14:27:19;100456.25;;;10.97;100.00
63006;BME280;53704;52.532;6.426;2022-11-15T14:29:46;100448.56;;;10.86;100.00
63006;BME280;53704;52.532;6.426;2022-11-15T14:32:20;100440.75;;;10.99;100.00
63006;BME280;53704;52.532;6.426;2022-11-15T14:34:48;100440.34;;;10.79;100.00
63006;BME280;53704;52.532;6.426;2022-11-15T14:37:29;100440.50;;;10.78;100.00
63006;BME280;53704;52.532;6.426;2022-11-15T14:39:58;100435.47;;;10.75;100.00
63006;BME280;53704;52.532;6.426;2022-11-15T14:42:24;100439.56;;;10.71;100.00
63006;BME280;53704;52.532;6.426;2022-11-15T14:44:50;100430.81;;;10.60;100.00